SBPB/PHB METAR and TAF weather

Enter ICAO airport designator
Station Type Date Time Source
SBPB METAR 2019/06/18 21:45 UTC NOAA

SBPB 182145Z 06012KT 9999 FEW020 28/24 Q1013


Station Type Date Time Source
SBPB Decoded METAR 2019/06/18 21:45 UTC NOAA

Parnaiba Aeroporto , Brazil (SBPB) 02-55S 041-45W
Jun 18, 2019 - 05:45 PM EDT / 2019.06.18 2145 UTC
Wind: from the ENE (060 degrees) at 14 MPH (12 KT):0
Visibility: greater than 7 mile(s):0
Sky conditions: mostly clear
Temperature: 82 F (28 C)
Dew Point: 75 F (24 C)
Relative Humidity: 78%
Pressure (altimeter): 29.91 in. Hg (1013 hPa)
ob: SBPB 182145Z 06012KT 9999 FEW020 28/24 Q1013
cycle: 22

Station Type Date Time Source
SBPB TAF 2019/06/18 18:51 UTC NOAA

TAF SBPB 181600Z 1818/1906 11008KT 9999 SCT018 TX31/1818Z TN24/1906Z
BECMG 1820/1822 08010KT FEW020 FEW025TCU
BECMG 1823/1901 FEW025
RMK PFM

Example: see airport list